sensor_id;sensor_type;location;lat;lon;timestamp;temperature;humidity
53520;DHT22;39397;53.204;5.778;2023-04-03T00:00:49;4.60;99.90
53520;DHT22;39397;53.204;5.778;2023-04-03T00:03:15;4.00;99.90
53520;DHT22;39397;53.204;5.778;2023-04-03T00:05:41;4.10;99.90
53520;DHT22;39397;53.204;5.778;2023-04-03T00:08:07;4.20;99.90
53520;DHT22;39397;53.204;5.778;2023-04-03T00:10:35;4.30;99.90
53520;DHT22;39397;53.204;5.778;2023-04-03T00:13:02;4.60;99.90
53520;DHT22;39397;53.204;5.778;2023-04-03T00:15:28;2.70;99.90
53520;DHT22;39397;53.204;5.778;2023-04-03T00:17:54;4.50;99.90
53520;DHT22;39397;53.204;5.778;2023-04-03T00:20:20;2.60;99.90
53520;DHT22;39397;53.204;5.778;2023-04-03T00:22:46;3.60;99.90
53520;DHT22;39397;53.204;5.778;2023-04-03T00:25:12;3.60;99.90
53520;DHT22;39397;53.204;5.778;2023-04-03T00:27:38;2.50;99.90
53520;DHT22;39397;53.204;5.778;2023-04-03T00:30:05;3.30;99.90
53520;DHT22;39397;53.204;5.778;2023-04-03T00:32:32;2.40;99.90
53520;DHT22;39397;53.204;5.778;2023-04-03T00:34:58;3.20;99.90
53520;DHT22;39397;53.204;5.778;2023-04-03T00:37:23;3.60;99.90
53520;DHT22;39397;53.204;5.778;2023-04-03T00:39:49;3.70;99.90
53520;DHT22;39397;53.204;5.778;2023-04-03T00:42:15;2.30;99.90
53520;DHT22;39397;53.204;5.778;2023-04-03T00:47:12;2.20;99.90
53520;DHT22;39397;53.204;5.778;2023-04-03T00:49:38;2.40;99.90
53520;DHT22;39397;53.204;5.778;2023-04-03T00:52:13;3.20;99.90
53520;DHT22;39397;53.204;5.778;2023-04-03T00:54:41;3.70;99.90
53520;DHT22;39397;53.204;5.778;2023-04-03T00:57:07;2.10;99.90
53520;DHT22;39397;53.204;5.778;2023-04-03T00:59:36;2.40;99.90
53520;DHT22;39397;53.204;5.778;2023-04-03T01:02:03;3.70;99.90
53520;DHT22;39397;53.204;5.778;2023-04-03T01:04:35;2.40;99.90
53520;DHT22;39397;53.204;5.778;2023-04-03T01:09:33;2.60;99.90
53520;DHT22;39397;53.204;5.778;2023-04-03T01:14:53;1.90;99.90
53520;DHT22;39397;53.204;5.778;2023-04-03T01:20:02;1.90;99.90
53520;DHT22;39397;53.204;5.778;2023-04-03T01:22:48;2.00;99.90
53520;DHT22;39397;53.204;5.778;2023-04-03T01:25:19;1.90;99.90
53520;DHT22;39397;53.204;5.778;2023-04-03T01:27:45;0.80;99.90
53520;DHT22;39397;53.204;5.778;2023-04-03T01:30:12;3.00;99.90
53520;DHT22;39397;53.204;5.778;2023-04-03T01:32:39;1.80;99.90
53520;DHT22;39397;53.204;5.778;2023-04-03T01:35:08;1.80;99.90
53520;DHT22;39397;53.204;5.778;2023-04-03T01:37:34;2.50;99.90
53520;DHT22;39397;53.204;5.778;2023-04-03T01:40:00;1.90;99.90
53520;DHT22;39397;53.204;5.778;2023-04-03T01:42:25;1.80;99.90
53520;DHT22;39397;53.204;5.778;2023-04-03T01:44:51;3.60;99.90
53520;DHT22;39397;53.204;5.778;2023-04-03T01:47:17;1.80;99.90
53520;DHT22;39397;53.204;5.778;2023-04-03T01:49:42;2.60;99.90
53520;DHT22;39397;53.204;5.778;2023-04-03T01:52:08;2.20;99.90
53520;DHT22;39397;53.204;5.778;2023-04-03T01:54:34;2.00;99.90
53520;DHT22;39397;53.204;5.778;2023-04-03T01:57:00;3.70;99.90
53520;DHT22;39397;53.204;5.778;2023-04-03T01:59:25;3.40;99.90
53520;DHT22;39397;53.204;5.778;2023-04-03T02:01:51;3.60;99.90
53520;DHT22;39397;53.204;5.778;2023-04-03T02:04:17;1.80;99.90
53520;DHT22;39397;53.204;5.778;2023-04-03T02:06:42;1.90;99.90
53520;DHT22;39397;53.204;5.778;2023-04-03T02:09:08;3.30;99.90
53520;DHT22;39397;53.204;5.778;2023-04-03T02:11:34;2.20;99.90
53520;DHT22;39397;53.204;5.778;2023-04-03T02:14:00;1.40;99.90
53520;DHT22;39397;53.204;5.778;2023-04-03T02:16:25;1.80;99.90
53520;DHT22;39397;53.204;5.778;2023-04-03T02:18:51;3.70;99.90
53520;DHT22;39397;53.204;5.778;2023-04-03T02:21:17;2.50;99.90
53520;DHT22;39397;53.204;5.778;2023-04-03T02:23:42;3.10;99.90
53520;DHT22;39397;53.204;5.778;2023-04-03T02:26:13;2.60;99.90
53520;DHT22;39397;53.204;5.778;2023-04-03T02:28:40;2.20;99.90
53520;DHT22;39397;53.204;5.778;2023-04-03T02:31:07;3.70;99.90
53520;DHT22;39397;53.204;5.778;2023-04-03T02:33:33;1.60;99.90
53520;DHT22;39397;53.204;5.778;2023-04-03T02:35:59;2.50;99.90
53520;DHT22;39397;53.204;5.778;2023-04-03T02:38:25;1.50;99.90
53520;DHT22;39397;53.204;5.778;2023-04-03T02:40:51;3.20;99.90
53520;DHT22;39397;53.204;5.778;2023-04-03T02:43:17;2.40;99.90
53520;DHT22;39397;53.204;5.778;2023-04-03T02:45:43;1.40;99.90
53520;DHT22;39397;53.204;5.778;2023-04-03T02:48:09;3.00;99.90
53520;DHT22;39397;53.204;5.778;2023-04-03T02:50:35;2.70;99.90
53520;DHT22;39397;53.204;5.778;2023-04-03T02:53:00;2.50;99.90
53520;DHT22;39397;53.204;5.778;2023-04-03T02:55:26;1.70;99.90
53520;DHT22;39397;53.204;5.778;2023-04-03T02:57:52;2.90;99.90
53520;DHT22;39397;53.204;5.778;2023-04-03T03:00:18;2.60;99.90
53520;DHT22;39397;53.204;5.778;2023-04-03T03:02:44;1.20;99.90
53520;DHT22;39397;53.204;5.778;2023-04-03T03:05:09;2.80;99.90
53520;DHT22;39397;53.204;5.778;2023-04-03T03:07:35;2.80;99.90
53520;DHT22;39397;53.204;5.778;2023-04-03T03:10:01;3.20;99.90
53520;DHT22;39397;53.204;5.778;2023-04-03T03:12:26;2.60;99.90
53520;DHT22;39397;53.204;5.778;2023-04-03T03:14:52;2.50;99.90
53520;DHT22;39397;53.204;5.778;2023-04-03T03:17:18;2.00;99.90
53520;DHT22;39397;53.204;5.778;2023-04-03T03:19:44;2.50;99.90
53520;DHT22;39397;53.204;5.778;2023-04-03T03:22:11;2.30;99.90
53520;DHT22;39397;53.204;5.778;2023-04-03T03:24:36;2.80;99.90
53520;DHT22;39397;53.204;5.778;2023-04-03T03:27:02;1.10;99.90
53520;DHT22;39397;53.204;5.778;2023-04-03T03:29:28;1.80;99.90
53520;DHT22;39397;53.204;5.778;2023-04-03T03:31:54;1.90;99.90
53520;DHT22;39397;53.204;5.778;2023-04-03T03:34:19;2.30;99.90
53520;DHT22;39397;53.204;5.778;2023-04-03T03:36:45;1.00;99.90
53520;DHT22;39397;53.204;5.778;2023-04-03T03:39:12;1.30;99.90
53520;DHT22;39397;53.204;5.778;2023-04-03T03:41:38;0.90;99.90
53520;DHT22;39397;53.204;5.778;2023-04-03T03:44:03;2.60;99.90
53520;DHT22;39397;53.204;5.778;2023-04-03T03:46:29;0.80;99.90
53520;DHT22;39397;53.204;5.778;2023-04-03T03:48:55;1.00;99.90
53520;DHT22;39397;53.204;5.778;2023-04-03T03:51:21;1.00;99.90
53520;DHT22;39397;53.204;5.778;2023-04-03T03:53:47;1.00;99.90
53520;DHT22;39397;53.204;5.778;2023-04-03T03:56:12;-0.30;99.90
53520;DHT22;39397;53.204;5.778;2023-04-03T03:58:38;2.10;99.90
53520;DHT22;39397;53.204;5.778;2023-04-03T04:01:05;2.70;99.90
53520;DHT22;39397;53.204;5.778;2023-04-03T04:03:31;1.80;99.90
53520;DHT22;39397;53.204;5.778;2023-04-03T04:05:57;2.70;99.90
53520;DHT22;39397;53.204;5.778;2023-04-03T04:08:23;0.80;99.90
53520;DHT22;39397;53.204;5.778;2023-04-03T04:10:49;0.80;99.90
53520;DHT22;39397;53.204;5.778;2023-04-03T04:13:16;0.70;99.90
53520;DHT22;39397;53.204;5.778;2023-04-03T04:15:42;1.80;99.90
53520;DHT22;39397;53.204;5.778;2023-04-03T04:18:09;2.50;99.90
53520;DHT22;39397;53.204;5.778;2023-04-03T04:20:34;2.50;99.90
53520;DHT22;39397;53.204;5.778;2023-04-03T04:23:00;0.80;99.90
53520;DHT22;39397;53.204;5.778;2023-04-03T04:25:26;1.90;99.90
53520;DHT22;39397;53.204;5.778;2023-04-03T04:27:51;0.60;99.90
53520;DHT22;39397;53.204;5.778;2023-04-03T04:30:17;0.90;99.90
53520;DHT22;39397;53.204;5.778;2023-04-03T04:32:43;1.90;99.90
53520;DHT22;39397;53.204;5.778;2023-04-03T04:35:09;2.00;99.90
53520;DHT22;39397;53.204;5.778;2023-04-03T04:37:35;1.90;99.90
53520;DHT22;39397;53.204;5.778;2023-04-03T04:40:00;0.60;99.90
53520;DHT22;39397;53.204;5.778;2023-04-03T04:42:27;0.50;99.90
53520;DHT22;39397;53.204;5.778;2023-04-03T04:44:53;1.70;99.90
53520;DHT22;39397;53.204;5.778;2023-04-03T04:47:18;0.50;99.90
53520;DHT22;39397;53.204;5.778;2023-04-03T04:49:44;0.50;99.90
53520;DHT22;39397;53.204;5.778;2023-04-03T04:52:10;0.40;99.90
53520;DHT22;39397;53.204;5.778;2023-04-03T04:54:36;0.70;99.90
53520;DHT22;39397;53.204;5.778;2023-04-03T04:57:02;1.20;99.90
53520;DHT22;39397;53.204;5.778;2023-04-03T04:59:27;1.00;99.90
53520;DHT22;39397;53.204;5.778;2023-04-03T05:01:53;2.50;99.90
53520;DHT22;39397;53.204;5.778;2023-04-03T05:04:19;2.30;99.90
53520;DHT22;39397;53.204;5.778;2023-04-03T05:06:44;1.50;99.90
53520;DHT22;39397;53.204;5.778;2023-04-03T05:09:10;0.30;99.90
53520;DHT22;39397;53.204;5.778;2023-04-03T05:11:36;1.20;99.90
53520;DHT22;39397;53.204;5.778;2023-04-03T05:14:02;0.50;99.90
53520;DHT22;39397;53.204;5.778;2023-04-03T05:16:30;0.40;99.90
53520;DHT22;39397;53.204;5.778;2023-04-03T05:18:56;0.40;99.90
53520;DHT22;39397;53.204;5.778;2023-04-03T05:21:22;1.80;99.90
53520;DHT22;39397;53.204;5.778;2023-04-03T05:23:50;2.10;99.90
53520;DHT22;39397;53.204;5.778;2023-04-03T05:26:15;1.70;99.90
53520;DHT22;39397;53.204;5.778;2023-04-03T05:28:41;1.10;99.90
53520;DHT22;39397;53.204;5.778;2023-04-03T05:31:07;0.50;99.90
53520;DHT22;39397;53.204;5.778;2023-04-03T05:33:33;0.30;99.90
53520;DHT22;39397;53.204;5.778;2023-04-03T05:36:03;1.20;99.90
53520;DHT22;39397;53.204;5.778;2023-04-03T05:38:29;1.90;99.90
53520;DHT22;39397;53.204;5.778;2023-04-03T05:40:55;0.50;99.90
53520;DHT22;39397;53.204;5.778;2023-04-03T05:43:20;1.30;99.90
53520;DHT22;39397;53.204;5.778;2023-04-03T05:45:47;0.40;99.90
53520;DHT22;39397;53.204;5.778;2023-04-03T05:48:13;1.80;99.90
53520;DHT22;39397;53.204;5.778;2023-04-03T05:50:38;1.60;99.90
53520;DHT22;39397;53.204;5.778;2023-04-03T05:53:09;1.90;99.90
53520;DHT22;39397;53.204;5.778;2023-04-03T05:55:36;1.70;99.90
53520;DHT22;39397;53.204;5.778;2023-04-03T05:58:02;1.30;99.90
53520;DHT22;39397;53.204;5.778;2023-04-03T06:00:27;0.60;99.90
53520;DHT22;39397;53.204;5.778;2023-04-03T06:02:53;1.90;99.90
53520;DHT22;39397;53.204;5.778;2023-04-03T06:05:19;1.60;99.90
53520;DHT22;39397;53.204;5.778;2023-04-03T06:07:44;2.00;99.90
53520;DHT22;39397;53.204;5.778;2023-04-03T06:10:12;1.00;99.90
53520;DHT22;39397;53.204;5.778;2023-04-03T06:12:37;1.90;99.90
53520;DHT22;39397;53.204;5.778;2023-04-03T06:15:04;2.50;99.90
53520;DHT22;39397;53.204;5.778;2023-04-03T06:17:30;1.10;99.90
53520;DHT22;39397;53.204;5.778;2023-04-03T06:19:55;1.10;99.90
53520;DHT22;39397;53.204;5.778;2023-04-03T06:22:23;1.90;99.90
53520;DHT22;39397;53.204;5.778;2023-04-03T06:24:51;2.70;99.90
53520;DHT22;39397;53.204;5.778;2023-04-03T06:27:16;1.40;99.90
53520;DHT22;39397;53.204;5.778;2023-04-03T06:29:42;1.40;99.90
53520;DHT22;39397;53.204;5.778;2023-04-03T06:32:09;2.30;99.90
53520;DHT22;39397;53.204;5.778;2023-04-03T06:34:35;1.40;99.90
53520;DHT22;39397;53.204;5.778;2023-04-03T06:37:01;3.10;99.90
53520;DHT22;39397;53.204;5.778;2023-04-03T06:39:26;1.50;99.90
53520;DHT22;39397;53.204;5.778;2023-04-03T06:41:52;1.60;99.90
53520;DHT22;39397;53.204;5.778;2023-04-03T06:44:18;1.90;99.90
53520;DHT22;39397;53.204;5.778;2023-04-03T06:46:44;1.60;99.90
53520;DHT22;39397;53.204;5.778;2023-04-03T06:49:11;1.80;99.90
53520;DHT22;39397;53.204;5.778;2023-04-03T06:51:37;1.80;99.90
53520;DHT22;39397;53.204;5.778;2023-04-03T06:54:04;3.00;99.90
53520;DHT22;39397;53.204;5.778;2023-04-03T06:56:31;2.40;99.90
53520;DHT22;39397;53.204;5.778;2023-04-03T06:58:57;1.90;99.90
53520;DHT22;39397;53.204;5.778;2023-04-03T07:01:25;2.70;99.90
53520;DHT22;39397;53.204;5.778;2023-04-03T07:03:51;2.20;99.90
53520;DHT22;39397;53.204;5.778;2023-04-03T07:06:18;4.00;99.90
53520;DHT22;39397;53.204;5.778;2023-04-03T07:08:45;2.20;99.90
53520;DHT22;39397;53.204;5.778;2023-04-03T07:11:11;2.70;99.90
53520;DHT22;39397;53.204;5.778;2023-04-03T07:13:38;3.20;99.90
53520;DHT22;39397;53.204;5.778;2023-04-03T07:16:04;4.10;99.90
53520;DHT22;39397;53.204;5.778;2023-04-03T07:18:32;2.50;99.90
53520;DHT22;39397;53.204;5.778;2023-04-03T07:20:58;4.60;99.90
53520;DHT22;39397;53.204;5.778;2023-04-03T07:23:24;2.80;99.90
53520;DHT22;39397;53.204;5.778;2023-04-03T07:25:50;2.80;99.90
53520;DHT22;39397;53.204;5.778;2023-04-03T07:28:18;3.60;99.90
53520;DHT22;39397;53.204;5.778;2023-04-03T07:31:05;3.00;99.90
53520;DHT22;39397;53.204;5.778;2023-04-03T07:33:34;3.10;99.90
53520;DHT22;39397;53.204;5.778;2023-04-03T07:36:00;4.80;99.90
53520;DHT22;39397;53.204;5.778;2023-04-03T07:38:27;3.30;99.90
53520;DHT22;39397;53.204;5.778;2023-04-03T07:40:53;3.70;99.90
53520;DHT22;39397;53.204;5.778;2023-04-03T07:43:20;5.20;99.90
53520;DHT22;39397;53.204;5.778;2023-04-03T07:45:47;4.30;99.90
53520;DHT22;39397;53.204;5.778;2023-04-03T07:48:17;4.20;99.90
53520;DHT22;39397;53.204;5.778;2023-04-03T07:50:44;3.70;99.90
53520;DHT22;39397;53.204;5.778;2023-04-03T07:53:10;3.80;99.90
53520;DHT22;39397;53.204;5.778;2023-04-03T07:55:36;3.90;99.90
53520;DHT22;39397;53.204;5.778;2023-04-03T07:58:12;5.30;99.90
53520;DHT22;39397;53.204;5.778;2023-04-03T08:00:40;4.00;99.90
53520;DHT22;39397;53.204;5.778;2023-04-03T08:03:07;4.10;99.90
53520;DHT22;39397;53.204;5.778;2023-04-03T08:05:37;5.10;99.90
53520;DHT22;39397;53.204;5.778;2023-04-03T08:08:04;5.50;99.90
53520;DHT22;39397;53.204;5.778;2023-04-03T08:10:30;5.00;99.90
53520;DHT22;39397;53.204;5.778;2023-04-03T08:12:56;6.10;99.90
53520;DHT22;39397;53.204;5.778;2023-04-03T08:15:22;6.00;99.90
53520;DHT22;39397;53.204;5.778;2023-04-03T08:17:48;6.40;99.90
53520;DHT22;39397;53.204;5.778;2023-04-03T08:20:13;6.00;99.90
53520;DHT22;39397;53.204;5.778;2023-04-03T08:22:39;5.90;99.90
53520;DHT22;39397;53.204;5.778;2023-04-03T08:25:06;6.20;99.90
53520;DHT22;39397;53.204;5.778;2023-04-03T08:27:32;4.90;99.90
53520;DHT22;39397;53.204;5.778;2023-04-03T08:29:58;5.80;99.90
53520;DHT22;39397;53.204;5.778;2023-04-03T08:32:24;6.20;99.90
53520;DHT22;39397;53.204;5.778;2023-04-03T08:34:50;5.20;99.90
53520;DHT22;39397;53.204;5.778;2023-04-03T08:37:15;5.40;99.90
53520;DHT22;39397;53.204;5.778;2023-04-03T08:39:42;5.40;99.90
53520;DHT22;39397;53.204;5.778;2023-04-03T08:48:00;6.40;99.90
53520;DHT22;39397;53.204;5.778;2023-04-03T08:50:38;5.80;99.90
53520;DHT22;39397;53.204;5.778;2023-04-03T08:53:06;5.80;99.90
53520;DHT22;39397;53.204;5.778;2023-04-03T08:55:43;7.00;99.90
53520;DHT22;39397;53.204;5.778;2023-04-03T08:58:22;6.10;99.90
53520;DHT22;39397;53.204;5.778;2023-04-03T09:01:05;6.60;99.90
53520;DHT22;39397;53.204;5.778;2023-04-03T09:03:39;6.40;99.90
53520;DHT22;39397;53.204;5.778;2023-04-03T09:06:13;6.60;99.90
53520;DHT22;39397;53.204;5.778;2023-04-03T09:11:58;6.60;99.90
53520;DHT22;39397;53.204;5.778;2023-04-03T09:14:39;6.70;99.90
53520;DHT22;39397;53.204;5.778;2023-04-03T09:20:19;7.00;99.90
53520;DHT22;39397;53.204;5.778;2023-04-03T09:22:47;7.10;99.90
53520;DHT22;39397;53.204;5.778;2023-04-03T09:25:21;7.10;99.90
53520;DHT22;39397;53.204;5.778;2023-04-03T09:27:50;7.20;99.90
53520;DHT22;39397;53.204;5.778;2023-04-03T09:30:24;7.40;99.90
53520;DHT22;39397;53.204;5.778;2023-04-03T09:32:52;7.30;99.90
53520;DHT22;39397;53.204;5.778;2023-04-03T09:35:31;7.30;99.90
53520;DHT22;39397;53.204;5.778;2023-04-03T09:40:49;7.50;99.90
53520;DHT22;39397;53.204;5.778;2023-04-03T09:43:25;7.70;98.90
53520;DHT22;39397;53.204;5.778;2023-04-03T09:45:53;7.70;98.60
53520;DHT22;39397;53.204;5.778;2023-04-03T09:48:25;7.80;98.70
53520;DHT22;39397;53.204;5.778;2023-04-03T09:50:58;9.00;98.90
53520;DHT22;39397;53.204;5.778;2023-04-03T09:55:57;8.20;97.60
53520;DHT22;39397;53.204;5.778;2023-04-03T09:58:32;8.40;97.60
53520;DHT22;39397;53.204;5.778;2023-04-03T10:01:01;8.50;97.20
53520;DHT22;39397;53.204;5.778;2023-04-03T10:03:30;8.50;96.90
53520;DHT22;39397;53.204;5.778;2023-04-03T10:05:58;8.60;96.40
53520;DHT22;39397;53.204;5.778;2023-04-03T10:08:33;8.70;95.80
53520;DHT22;39397;53.204;5.778;2023-04-03T10:11:18;8.70;94.90
53520;DHT22;39397;53.204;5.778;2023-04-03T10:14:01;8.70;93.90
53520;DHT22;39397;53.204;5.778;2023-04-03T10:25:22;8.70;92.40
53520;DHT22;39397;53.204;5.778;2023-04-03T10:28:00;8.70;92.10
53520;DHT22;39397;53.204;5.778;2023-04-03T10:30:29;8.70;91.60
53520;DHT22;39397;53.204;5.778;2023-04-03T10:41:07;9.10;92.10
53520;DHT22;39397;53.204;5.778;2023-04-03T10:43:45;9.00;91.10
53520;DHT22;39397;53.204;5.778;2023-04-03T10:46:28;9.00;90.20
53520;DHT22;39397;53.204;5.778;2023-04-03T10:51:58;9.70;91.00
53520;DHT22;39397;53.204;5.778;2023-04-03T10:54:36;9.40;90.90
53520;DHT22;39397;53.204;5.778;2023-04-03T10:57:10;9.40;90.60
53520;DHT22;39397;53.204;5.778;2023-04-03T10:59:45;9.30;90.20
53520;DHT22;39397;53.204;5.778;2023-04-03T11:02:26;9.50;88.40
53520;DHT22;39397;53.204;5.778;2023-04-03T11:05:15;9.30;90.00
53520;DHT22;39397;53.204;5.778;2023-04-03T11:07:47;9.50;88.00
53520;DHT22;39397;53.204;5.778;2023-04-03T11:10:21;9.50;88.20
53520;DHT22;39397;53.204;5.778;2023-04-03T11:12:54;9.60;87.40
53520;DHT22;39397;53.204;5.778;2023-04-03T11:15:24;9.50;87.70
53520;DHT22;39397;53.204;5.778;2023-04-03T11:20:23;9.80;86.10
53520;DHT22;39397;53.204;5.778;2023-04-03T11:23:16;9.80;87.20
53520;DHT22;39397;53.204;5.778;2023-04-03T11:25:46;9.80;87.20
53520;DHT22;39397;53.204;5.778;2023-04-03T11:28:15;9.90;86.40
53520;DHT22;39397;53.204;5.778;2023-04-03T11:33:32;10.00;84.70
53520;DHT22;39397;53.204;5.778;2023-04-03T11:36:30;10.10;84.70
53520;DHT22;39397;53.204;5.778;2023-04-03T11:39:01;10.10;84.50
53520;DHT22;39397;53.204;5.778;2023-04-03T11:41:29;10.10;85.40
53520;DHT22;39397;53.204;5.778;2023-04-03T11:43:59;10.80;85.40
53520;DHT22;39397;53.204;5.778;2023-04-03T11:46:53;10.50;84.90
53520;DHT22;39397;53.204;5.778;2023-04-03T12:13:40;10.30;84.30
53520;DHT22;39397;53.204;5.778;2023-04-03T12:16:28;10.50;83.60
53520;DHT22;39397;53.204;5.778;2023-04-03T12:21:21;10.40;81.40
53520;DHT22;39397;53.204;5.778;2023-04-03T12:37:56;10.40;80.10
53520;DHT22;39397;53.204;5.778;2023-04-03T12:43:09;10.40;79.80
53520;DHT22;39397;53.204;5.778;2023-04-03T12:48:15;10.40;80.90
53520;DHT22;39397;53.204;5.778;2023-04-03T12:50:43;10.50;78.60
53520;DHT22;39397;53.204;5.778;2023-04-03T12:53:16;10.40;79.90
53520;DHT22;39397;53.204;5.778;2023-04-03T12:55:43;10.30;80.40
53520;DHT22;39397;53.204;5.778;2023-04-03T12:58:24;10.30;80.60
53520;DHT22;39397;53.204;5.778;2023-04-03T13:03:27;10.50;80.70
53520;DHT22;39397;53.204;5.778;2023-04-03T13:06:01;10.50;79.60
53520;DHT22;39397;53.204;5.778;2023-04-03T13:08:29;10.70;80.00
53520;DHT22;39397;53.204;5.778;2023-04-03T13:11:01;10.90;79.20
53520;DHT22;39397;53.204;5.778;2023-04-03T13:13:28;10.60;79.70
53520;DHT22;39397;53.204;5.778;2023-04-03T13:15:55;10.80;79.80
53520;DHT22;39397;53.204;5.778;2023-04-03T13:18:33;10.60;80.00
53520;DHT22;39397;53.204;5.778;2023-04-03T13:21:05;10.70;80.20
53520;DHT22;39397;53.204;5.778;2023-04-03T13:23:32;10.70;78.50
53520;DHT22;39397;53.204;5.778;2023-04-03T13:26:00;10.70;79.70
53520;DHT22;39397;53.204;5.778;2023-04-03T13:28:30;10.70;79.50
53520;DHT22;39397;53.204;5.778;2023-04-03T13:31:05;10.70;79.30
53520;DHT22;39397;53.204;5.778;2023-04-03T13:33:35;10.60;78.00
53520;DHT22;39397;53.204;5.778;2023-04-03T13:36:28;10.70;79.90
53520;DHT22;39397;53.204;5.778;2023-04-03T13:41:50;10.90;80.60
53520;DHT22;39397;53.204;5.778;2023-04-03T13:46:57;11.00;80.40
53520;DHT22;39397;53.204;5.778;2023-04-03T13:49:36;11.00;79.70
53520;DHT22;39397;53.204;5.778;2023-04-03T13:55:00;11.00;76.40
53520;DHT22;39397;53.204;5.778;2023-04-03T13:57:27;10.80;78.40
53520;DHT22;39397;53.204;5.778;2023-04-03T13:59:53;10.60;77.90
53520;DHT22;39397;53.204;5.778;2023-04-03T14:02:33;10.70;78.00
53520;DHT22;39397;53.204;5.778;2023-04-03T14:05:00;10.50;78.70
53520;DHT22;39397;53.204;5.778;2023-04-03T14:07:29;10.50;79.20
53520;DHT22;39397;53.204;5.778;2023-04-03T14:09:55;10.50;79.40
53520;DHT22;39397;53.204;5.778;2023-04-03T14:12:28;10.60;79.50
53520;DHT22;39397;53.204;5.778;2023-04-03T14:14:55;10.80;80.10
53520;DHT22;39397;53.204;5.778;2023-04-03T14:17:24;11.20;80.20
53520;DHT22;39397;53.204;5.778;2023-04-03T14:19:51;10.80;79.80
53520;DHT22;39397;53.204;5.778;2023-04-03T14:22:22;10.90;79.90
53520;DHT22;39397;53.204;5.778;2023-04-03T14:24:49;10.90;79.90
53520;DHT22;39397;53.204;5.778;2023-04-03T14:27:22;10.90;80.60
53520;DHT22;39397;53.204;5.778;2023-04-03T14:29:51;11.10;78.80
53520;DHT22;39397;53.204;5.778;2023-04-03T14:32:19;11.10;81.20
53520;DHT22;39397;53.204;5.778;2023-04-03T14:34:45;11.20;80.20
53520;DHT22;39397;53.204;5.778;2023-04-03T14:37:13;11.30;78.40
53520;DHT22;39397;53.204;5.778;2023-04-03T14:39:40;11.40;79.10
53520;DHT22;39397;53.204;5.778;2023-04-03T14:42:06;11.40;79.40
53520;DHT22;39397;53.204;5.778;2023-04-03T14:44:32;11.50;78.10
53520;DHT22;39397;53.204;5.778;2023-04-03T14:46:57;10.00;77.50
53520;DHT22;39397;53.204;5.778;2023-04-03T14:49:27;11.60;78.20
53520;DHT22;39397;53.204;5.778;2023-04-03T14:51:54;11.60;78.30
53520;DHT22;39397;53.204;5.778;2023-04-03T14:54:22;11.80;77.30
53520;DHT22;39397;53.204;5.778;2023-04-03T14:56:53;11.80;77.70
53520;DHT22;39397;53.204;5.778;2023-04-03T14:59:19;12.00;77.10
53520;DHT22;39397;53.204;5.778;2023-04-03T15:01:47;12.10;76.80
53520;DHT22;39397;53.204;5.778;2023-04-03T15:04:14;12.30;77.00
53520;DHT22;39397;53.204;5.778;2023-04-03T15:06:41;12.40;76.70
53520;DHT22;39397;53.204;5.778;2023-04-03T15:09:24;12.50;76.80
53520;DHT22;39397;53.204;5.778;2023-04-03T15:11:52;12.70;74.80
53520;DHT22;39397;53.204;5.778;2023-04-03T15:14:18;12.70;75.90
53520;DHT22;39397;53.204;5.778;2023-04-03T15:16:44;12.70;75.70
53520;DHT22;39397;53.204;5.778;2023-04-03T15:19:10;12.60;77.20
53520;DHT22;39397;53.204;5.778;2023-04-03T15:21:37;12.60;78.70
53520;DHT22;39397;53.204;5.778;2023-04-03T15:24:03;12.60;78.80
53520;DHT22;39397;53.204;5.778;2023-04-03T15:26:29;12.80;78.50
53520;DHT22;39397;53.204;5.778;2023-04-03T15:28:56;12.70;79.60
53520;DHT22;39397;53.204;5.778;2023-04-03T15:31:21;12.80;79.60
53520;DHT22;39397;53.204;5.778;2023-04-03T15:33:47;12.80;79.20
53520;DHT22;39397;53.204;5.778;2023-04-03T15:36:13;12.90;79.90
53520;DHT22;39397;53.204;5.778;2023-04-03T15:38:38;12.90;80.00
53520;DHT22;39397;53.204;5.778;2023-04-03T15:41:04;13.00;80.70
53520;DHT22;39397;53.204;5.778;2023-04-03T15:43:31;13.10;80.60
53520;DHT22;39397;53.204;5.778;2023-04-03T15:45:59;13.30;80.20
53520;DHT22;39397;53.204;5.778;2023-04-03T15:48:26;13.30;79.80
53520;DHT22;39397;53.204;5.778;2023-04-03T15:50:53;13.30;79.10
53520;DHT22;39397;53.204;5.778;2023-04-03T15:53:18;13.20;79.00
53520;DHT22;39397;53.204;5.778;2023-04-03T15:55:44;13.10;79.20
53520;DHT22;39397;53.204;5.778;2023-04-03T15:58:10;13.20;79.20
53520;DHT22;39397;53.204;5.778;2023-04-03T16:00:36;13.20;78.50
53520;DHT22;39397;53.204;5.778;2023-04-03T16:03:20;13.30;78.50
53520;DHT22;39397;53.204;5.778;2023-04-03T16:05:46;13.20;78.90
53520;DHT22;39397;53.204;5.778;2023-04-03T16:08:13;13.20;77.10
53520;DHT22;39397;53.204;5.778;2023-04-03T16:10:39;13.20;76.90
53520;DHT22;39397;53.204;5.778;2023-04-03T16:13:06;13.40;77.00
53520;DHT22;39397;53.204;5.778;2023-04-03T16:15:32;13.50;76.50
53520;DHT22;39397;53.204;5.778;2023-04-03T16:17:59;13.70;76.50
53520;DHT22;39397;53.204;5.778;2023-04-03T16:20:26;14.00;76.30
53520;DHT22;39397;53.204;5.778;2023-04-03T16:22:52;14.30;76.10
53520;DHT22;39397;53.204;5.778;2023-04-03T16:25:18;14.40;74.30
53520;DHT22;39397;53.204;5.778;2023-04-03T16:27:43;14.40;74.20
53520;DHT22;39397;53.204;5.778;2023-04-03T16:30:10;14.50;73.90
53520;DHT22;39397;53.204;5.778;2023-04-03T16:32:37;14.50;72.80
53520;DHT22;39397;53.204;5.778;2023-04-03T16:35:04;14.60;73.20
53520;DHT22;39397;53.204;5.778;2023-04-03T16:37:30;14.90;72.50
53520;DHT22;39397;53.204;5.778;2023-04-03T16:39:56;14.70;72.80
53520;DHT22;39397;53.204;5.778;2023-04-03T16:42:24;14.40;72.30
53520;DHT22;39397;53.204;5.778;2023-04-03T16:44:50;14.10;72.20
53520;DHT22;39397;53.204;5.778;2023-04-03T16:47:16;14.00;72.70
53520;DHT22;39397;53.204;5.778;2023-04-03T16:49:45;14.30;72.60
53520;DHT22;39397;53.204;5.778;2023-04-03T16:52:10;14.40;72.20
53520;DHT22;39397;53.204;5.778;2023-04-03T16:54:36;14.30;71.40
53520;DHT22;39397;53.204;5.778;2023-04-03T16:57:02;14.30;71.80
53520;DHT22;39397;53.204;5.778;2023-04-03T16:59:28;14.30;71.90
53520;DHT22;39397;53.204;5.778;2023-04-03T17:01:54;14.30;72.90
53520;DHT22;39397;53.204;5.778;2023-04-03T17:04:20;14.30;72.80
53520;DHT22;39397;53.204;5.778;2023-04-03T17:06:46;14.20;72.30
53520;DHT22;39397;53.204;5.778;2023-04-03T17:09:11;14.10;72.50
53520;DHT22;39397;53.204;5.778;2023-04-03T17:11:37;14.10;72.50
53520;DHT22;39397;53.204;5.778;2023-04-03T17:14:04;14.20;71.90
53520;DHT22;39397;53.204;5.778;2023-04-03T17:16:30;14.00;71.60
53520;DHT22;39397;53.204;5.778;2023-04-03T17:18:58;13.80;72.20
53520;DHT22;39397;53.204;5.778;2023-04-03T17:21:24;13.50;72.50
53520;DHT22;39397;53.204;5.778;2023-04-03T17:23:54;13.30;72.70
53520;DHT22;39397;53.204;5.778;2023-04-03T17:26:23;12.80;73.60
53520;DHT22;39397;53.204;5.778;2023-04-03T17:28:49;11.80;74.60
53520;DHT22;39397;53.204;5.778;2023-04-03T17:31:15;11.40;75.80
53520;DHT22;39397;53.204;5.778;2023-04-03T17:33:40;11.10;76.50
53520;DHT22;39397;53.204;5.778;2023-04-03T17:36:06;10.50;77.40